createdAt,value
2022-09-14T00:01:26.642Z,15.45
2022-09-14T00:03:56.511Z,15.47
2022-09-14T00:06:23.687Z,15.48
2022-09-14T00:08:55.089Z,15.49
2022-09-14T00:11:23.399Z,15.40
2022-09-14T00:13:50.989Z,15.38
2022-09-14T00:16:25.162Z,15.36
2022-09-14T00:18:56.627Z,15.31
2022-09-14T00:21:24.202Z,15.26
2022-09-14T00:23:50.950Z,15.27
2022-09-14T00:26:20.460Z,15.34
2022-09-14T00:28:56.562Z,15.38
2022-09-14T00:31:23.957Z,15.35
2022-09-14T00:33:51.471Z,15.33
2022-09-14T00:36:24.304Z,15.32
2022-09-14T00:38:51.963Z,15.34
2022-09-14T00:41:23.102Z,15.32
2022-09-14T00:44:24.867Z,15.31
2022-09-14T00:46:54.892Z,15.26
2022-09-14T00:49:24.898Z,15.23
2022-09-14T00:52:08.787Z,15.25
2022-09-14T00:54:42.197Z,15.28
2022-09-14T00:57:08.736Z,15.29
2022-09-14T00:59:39.088Z,15.25
2022-09-14T01:02:09.222Z,15.25
2022-09-14T01:04:36.731Z,15.26
2022-09-14T01:07:22.192Z,15.25
2022-09-14T01:09:48.560Z,15.23
2022-09-14T01:12:33.723Z,15.25
2022-09-14T01:15:38.764Z,15.23
2022-09-14T01:18:08.380Z,15.23
2022-09-14T01:21:02.433Z,15.25
2022-09-14T01:23:45.303Z,15.27
2022-09-14T01:26:23.949Z,15.25
2022-09-14T01:28:59.649Z,15.28
2022-09-14T01:31:35.233Z,15.27
2022-09-14T01:34:31.876Z,15.21
2022-09-14T01:37:12.907Z,15.24
2022-09-14T01:39:44.996Z,15.23
2022-09-14T01:42:13.647Z,15.22
2022-09-14T01:44:45.370Z,15.24
2022-09-14T01:47:20.418Z,15.26
2022-09-14T01:49:55.801Z,15.25
2022-09-14T01:52:35.103Z,15.27
2022-09-14T01:55:10.527Z,15.28
2022-09-14T01:57:44.670Z,15.27
2022-09-14T02:00:19.114Z,15.27
2022-09-14T02:02:58.812Z,15.23
2022-09-14T02:05:55.537Z,15.22
2022-09-14T02:08:22.431Z,15.24
2022-09-14T02:10:48.991Z,15.26
2022-09-14T02:13:15.669Z,15.25
2022-09-14T02:15:42.151Z,15.20
2022-09-14T02:18:08.689Z,15.11
2022-09-14T02:20:48.904Z,15.06
2022-09-14T02:23:16.053Z,15.02
2022-09-14T02:25:42.565Z,15.00
2022-09-14T02:28:09.153Z,15.03
2022-09-14T02:30:52.461Z,15.05
2022-09-14T02:33:23.054Z,14.97
2022-09-14T02:36:00.773Z,14.91
2022-09-14T02:38:50.735Z,14.92
2022-09-14T02:41:26.022Z,14.87
2022-09-14T02:44:20.216Z,14.81
2022-09-14T02:47:24.016Z,14.81
2022-09-14T02:50:11.906Z,14.86
2022-09-14T02:53:07.464Z,14.76
2022-09-14T02:55:38.016Z,14.72
2022-09-14T02:58:14.768Z,14.80
2022-09-14T03:00:50.881Z,14.87
2022-09-14T03:03:20.948Z,14.89
2022-09-14T03:05:47.607Z,14.88
2022-09-14T03:08:14.228Z,14.85
2022-09-14T03:10:44.251Z,14.82
2022-09-14T03:13:11.624Z,14.80
2022-09-14T03:15:38.161Z,14.78
2022-09-14T03:18:06.315Z,14.81
2022-09-14T03:20:34.175Z,14.84
2022-09-14T03:23:01.929Z,14.86
2022-09-14T03:25:28.831Z,14.87
2022-09-14T03:27:57.748Z,14.80
2022-09-14T03:30:24.948Z,14.80
2022-09-14T03:32:51.720Z,14.79
2022-09-14T03:35:18.769Z,14.76
2022-09-14T03:37:46.246Z,14.70
2022-09-14T03:40:20.799Z,14.68
2022-09-14T03:42:50.016Z,14.70
2022-09-14T03:45:17.797Z,14.73
2022-09-14T03:47:44.424Z,14.79
2022-09-14T03:50:12.576Z,14.81
2022-09-14T03:52:39.726Z,14.83
2022-09-14T03:55:08.129Z,14.76
2022-09-14T03:57:34.731Z,14.65
2022-09-14T04:00:01.352Z,14.60
2022-09-14T04:02:29.485Z,14.66
2022-09-14T04:04:56.236Z,14.67
2022-09-14T04:07:22.649Z,14.65
2022-09-14T04:09:49.253Z,14.69
2022-09-14T04:12:15.682Z,14.71
2022-09-14T04:14:42.162Z,14.68
2022-09-14T04:17:08.627Z,14.70
2022-09-14T04:19:37.504Z,14.68
2022-09-14T04:22:05.206Z,14.69
2022-09-14T04:24:31.763Z,14.67
2022-09-14T04:26:58.846Z,14.65
2022-09-14T04:29:25.760Z,14.63
2022-09-14T04:31:52.314Z,14.59
2022-09-14T04:34:18.713Z,14.57
2022-09-14T04:36:45.137Z,14.55
2022-09-14T04:39:13.749Z,14.55
2022-09-14T04:41:40.561Z,14.55
2022-09-14T04:44:07.086Z,14.60
2022-09-14T04:46:43.602Z,14.61
2022-09-14T04:49:13.010Z,14.54
2022-09-14T04:51:39.655Z,14.55
2022-09-14T04:54:07.359Z,14.56
2022-09-14T04:56:35.989Z,14.52
2022-09-14T04:59:04.401Z,14.51
2022-09-14T05:01:37.566Z,14.54
2022-09-14T05:04:05.200Z,14.54
2022-09-14T05:06:34.476Z,14.52
2022-09-14T05:09:02.130Z,14.48
2022-09-14T05:11:34.593Z,14.55
2022-09-14T05:14:01.979Z,14.53
2022-09-14T05:16:31.580Z,14.50
2022-09-14T05:19:04.063Z,14.46
2022-09-14T05:21:32.271Z,14.41
2022-09-14T05:24:01.075Z,14.45
2022-09-14T05:26:29.190Z,14.44
2022-09-14T05:28:56.517Z,14.39
2022-09-14T05:31:24.631Z,14.35
2022-09-14T05:33:50.994Z,14.42
2022-09-14T05:36:17.696Z,14.43
2022-09-14T05:38:44.506Z,14.41
2022-09-14T05:41:13.028Z,14.41
2022-09-14T05:43:40.351Z,14.46
2022-09-14T05:46:13.618Z,14.49
2022-09-14T05:48:41.133Z,14.50
2022-09-14T05:51:16.587Z,14.53
2022-09-14T05:53:53.590Z,14.58
2022-09-14T05:56:21.836Z,14.59
2022-09-14T05:58:48.758Z,14.60
2022-09-14T06:01:16.310Z,14.60
2022-09-14T06:03:43.680Z,14.59
2022-09-14T06:06:13.068Z,14.64
2022-09-14T06:08:40.114Z,14.71
2022-09-14T06:11:11.404Z,14.76
2022-09-14T06:13:37.924Z,14.79
2022-09-14T06:16:06.391Z,14.79
2022-09-14T06:18:34.364Z,14.81
2022-09-14T06:21:01.408Z,14.87
2022-09-14T06:23:28.778Z,14.89
2022-09-14T06:25:56.532Z,14.88
2022-09-14T06:28:24.526Z,14.89
2022-09-14T06:30:51.337Z,14.94
2022-09-14T06:33:18.393Z,15.03
2022-09-14T06:35:55.676Z,15.04
2022-09-14T06:38:22.348Z,15.15
2022-09-14T06:40:59.430Z,15.20
2022-09-14T06:43:27.704Z,15.19
2022-09-14T06:46:01.684Z,15.26
2022-09-14T06:48:30.804Z,15.28
2022-09-14T06:50:57.826Z,15.35
2022-09-14T06:53:24.952Z,15.42
2022-09-14T06:55:51.814Z,15.40
2022-09-14T06:58:19.891Z,15.26
2022-09-14T07:00:46.408Z,15.26
2022-09-14T07:03:12.920Z,15.26
2022-09-14T07:05:39.386Z,15.23
2022-09-14T07:08:10.167Z,15.19
2022-09-14T07:10:38.600Z,15.16
2022-09-14T07:13:05.082Z,15.15
2022-09-14T07:15:31.519Z,15.18
2022-09-14T07:17:58.937Z,15.14
2022-09-14T07:20:25.478Z,15.17
2022-09-14T07:22:52.008Z,15.20
2022-09-14T07:25:18.448Z,15.24
2022-09-14T07:27:44.951Z,15.28
2022-09-14T07:30:12.554Z,15.33
2022-09-14T07:32:38.959Z,15.44
2022-09-14T07:35:06.223Z,15.55
2022-09-14T07:37:32.749Z,15.60
2022-09-14T07:39:59.428Z,15.58
2022-09-14T07:42:25.872Z,15.53
2022-09-14T07:44:52.364Z,15.54
2022-09-14T07:47:18.892Z,15.58
2022-09-14T07:49:45.477Z,15.64
2022-09-14T07:52:11.941Z,15.65
2022-09-14T07:54:38.427Z,15.70
2022-09-14T07:57:04.988Z,15.79
2022-09-14T07:59:35.958Z,15.84
2022-09-14T08:02:07.041Z,15.88
2022-09-14T08:04:39.405Z,15.87
2022-09-14T08:07:06.411Z,15.89
2022-09-14T08:09:33.275Z,15.97
2022-09-14T08:12:00.510Z,16.01
2022-09-14T08:14:26.975Z,15.94
2022-09-14T08:16:53.500Z,15.96
2022-09-14T08:19:20.859Z,15.99
2022-09-14T08:21:48.199Z,16.02
2022-09-14T08:24:17.628Z,16.04
2022-09-14T08:26:44.426Z,16.08
2022-09-14T08:29:13.110Z,16.13
2022-09-14T08:31:41.057Z,16.24
2022-09-14T08:34:08.166Z,16.29
2022-09-14T08:36:37.210Z,16.35
2022-09-14T08:39:06.146Z,16.41
2022-09-14T08:41:43.574Z,16.43
2022-09-14T08:44:09.952Z,16.46
2022-09-14T08:46:43.783Z,16.42
2022-09-14T08:49:19.388Z,16.49
2022-09-14T08:51:46.268Z,16.54
2022-09-14T08:54:12.930Z,16.60
2022-09-14T08:56:47.183Z,16.65
2022-09-14T08:59:17.145Z,16.66
2022-09-14T09:02:04.845Z,16.71
2022-09-14T09:04:56.391Z,16.78
2022-09-14T09:08:04.012Z,16.79
2022-09-14T09:10:32.775Z,16.79
2022-09-14T09:13:05.610Z,16.84
2022-09-14T09:15:53.057Z,16.90
2022-09-14T09:18:29.322Z,16.90
2022-09-14T09:21:01.770Z,16.88
2022-09-14T09:23:30.652Z,16.90
2022-09-14T09:26:17.008Z,16.88
2022-09-14T09:28:52.243Z,16.96
2022-09-14T09:31:24.732Z,17.01
2022-09-14T09:33:51.276Z,17.08
2022-09-14T09:36:18.420Z,17.19
2022-09-14T09:38:44.965Z,17.30
2022-09-14T09:41:20.791Z,17.43
2022-09-14T09:44:09.340Z,17.49
2022-09-14T09:46:45.601Z,17.58
2022-09-14T09:49:22.728Z,17.69
2022-09-14T09:51:50.979Z,17.77
2022-09-14T09:54:29.940Z,17.81
2022-09-14T09:57:05.302Z,17.82
2022-09-14T09:59:39.528Z,17.81
2022-09-14T10:02:31.644Z,17.82
2022-09-14T10:05:07.136Z,17.81
2022-09-14T10:07:51.891Z,17.79
2022-09-14T10:10:23.765Z,17.81
2022-09-14T10:12:54.136Z,17.85
2022-09-14T10:15:28.625Z,17.85
2022-09-14T10:18:13.483Z,17.92
2022-09-14T10:20:44.548Z,17.95
2022-09-14T10:23:20.182Z,18.01
2022-09-14T10:25:48.489Z,18.02
2022-09-14T10:28:30.438Z,17.97
2022-09-14T10:31:01.655Z,17.99
2022-09-14T10:33:29.784Z,18.05
2022-09-14T10:36:13.244Z,17.98
2022-09-14T10:38:46.004Z,18.02
2022-09-14T10:41:48.122Z,18.04
2022-09-14T10:44:36.151Z,18.06
2022-09-14T10:47:13.132Z,18.15
2022-09-14T10:49:57.973Z,18.18
2022-09-14T10:52:36.611Z,18.26
2022-09-14T10:55:06.043Z,18.27
2022-09-14T10:57:57.580Z,18.22
2022-09-14T11:00:24.208Z,18.28
2022-09-14T11:02:56.158Z,18.37
2022-09-14T11:05:27.656Z,18.29
2022-09-14T11:08:31.202Z,18.35
2022-09-14T11:11:30.631Z,18.42
2022-09-14T11:14:22.509Z,18.48
2022-09-14T11:17:23.435Z,18.48
2022-09-14T11:19:52.928Z,18.58
2022-09-14T11:22:36.929Z,18.65
2022-09-14T11:25:42.387Z,18.59
2022-09-14T11:28:40.176Z,18.57
2022-09-14T11:31:06.696Z,18.57
2022-09-14T11:33:43.662Z,18.61
2022-09-14T11:36:16.699Z,18.62
2022-09-14T11:38:49.917Z,18.65
2022-09-14T11:41:35.730Z,18.61
2022-09-14T11:44:11.185Z,18.61
2022-09-14T11:46:49.380Z,18.59
2022-09-14T11:49:27.672Z,18.67
2022-09-14T11:52:00.915Z,18.67
2022-09-14T11:54:27.632Z,18.62
2022-09-14T11:57:01.734Z,18.56
2022-09-14T11:59:40.454Z,18.56
2022-09-14T12:02:25.285Z,18.66
2022-09-14T12:05:10.609Z,18.73
2022-09-14T12:07:39.821Z,18.68
2022-09-14T12:10:15.709Z,18.75
2022-09-14T12:12:58.524Z,18.75
2022-09-14T12:15:24.973Z,18.77
2022-09-14T12:18:06.722Z,18.80
2022-09-14T12:20:53.114Z,18.91
2022-09-14T12:23:39.127Z,19.03
2022-09-14T12:26:11.900Z,19.11
2022-09-14T12:28:43.567Z,19.11
2022-09-14T12:31:31.947Z,19.13
2022-09-14T12:34:30.290Z,19.14
2022-09-14T12:36:59.257Z,19.29
2022-09-14T12:39:27.012Z,19.50
2022-09-14T12:41:53.399Z,19.57
2022-09-14T12:44:40.909Z,19.41
2022-09-14T12:47:25.848Z,19.34
2022-09-14T12:49:54.043Z,19.24
2022-09-14T12:52:35.849Z,19.46
2022-09-14T12:55:07.491Z,19.68
2022-09-14T12:57:45.202Z,19.79
2022-09-14T13:00:16.817Z,19.94
2022-09-14T13:03:17.948Z,20.16
2022-09-14T13:05:45.587Z,20.40
2022-09-14T13:08:17.314Z,20.53
2022-09-14T13:10:49.320Z,20.42
2022-09-14T13:13:22.165Z,20.47
2022-09-14T13:15:59.134Z,20.53
2022-09-14T13:18:39.168Z,20.63
2022-09-14T13:21:19.441Z,20.63
2022-09-14T13:23:46.239Z,20.81
2022-09-14T13:26:20.669Z,20.98
2022-09-14T13:28:49.642Z,21.02
2022-09-14T13:31:36.167Z,21.03
2022-09-14T13:34:05.232Z,20.99
2022-09-14T13:36:43.479Z,20.99
2022-09-14T13:39:29.565Z,20.89
2022-09-14T13:41:56.700Z,21.19
2022-09-14T13:44:30.511Z,21.31
2022-09-14T13:46:57.995Z,21.33
2022-09-14T13:49:24.858Z,21.32
2022-09-14T13:51:51.394Z,21.21
2022-09-14T13:54:20.244Z,21.40
2022-09-14T13:56:47.364Z,21.39
2022-09-14T13:59:17.113Z,21.21
2022-09-14T14:01:46.582Z,21.01
2022-09-14T14:04:26.446Z,20.90
2022-09-14T14:07:19.731Z,20.99
2022-09-14T14:09:50.972Z,20.83
2022-09-14T14:12:29.489Z,20.70
2022-09-14T14:15:00.226Z,20.57
2022-09-14T14:17:29.702Z,20.46
2022-09-14T14:19:59.012Z,20.44
2022-09-14T14:22:35.502Z,20.50
2022-09-14T14:25:18.327Z,20.45
2022-09-14T14:27:47.643Z,20.47
2022-09-14T14:30:17.749Z,20.56
2022-09-14T14:32:49.074Z,20.62
2022-09-14T14:35:18.632Z,20.67
2022-09-14T14:37:45.026Z,20.69
2022-09-14T14:40:12.682Z,20.68
2022-09-14T14:42:39.371Z,20.52
2022-09-14T14:45:07.081Z,20.57
2022-09-14T14:47:33.639Z,20.83
2022-09-14T14:50:00.248Z,20.98
2022-09-14T14:52:26.899Z,21.04
2022-09-14T14:54:53.365Z,21.17
2022-09-14T14:57:19.816Z,21.42
2022-09-14T14:59:47.068Z,21.25
2022-09-14T15:02:13.512Z,21.28
2022-09-14T15:04:39.971Z,21.35
2022-09-14T15:07:06.503Z,21.17
2022-09-14T15:09:33.431Z,21.18
2022-09-14T15:12:00.119Z,21.32
2022-09-14T15:14:27.797Z,21.08
2022-09-14T15:16:57.936Z,20.93
2022-09-14T15:19:24.825Z,21.00
2022-09-14T15:21:51.371Z,21.12
2022-09-14T15:24:18.023Z,21.03
2022-09-14T15:26:44.417Z,21.01
2022-09-14T15:29:13.605Z,21.03
2022-09-14T15:31:40.830Z,21.10
2022-09-14T15:34:07.308Z,21.16
2022-09-14T15:36:52.611Z,21.16
2022-09-14T15:39:29.689Z,21.13
2022-09-14T15:41:56.791Z,21.13
2022-09-14T15:44:23.656Z,21.13
2022-09-14T15:46:50.644Z,21.11
2022-09-14T15:49:20.609Z,21.05
2022-09-14T15:51:48.664Z,20.98
2022-09-14T15:54:15.828Z,20.94
2022-09-14T15:56:42.262Z,20.90
2022-09-14T15:59:09.117Z,20.91
2022-09-14T16:01:36.656Z,20.93
2022-09-14T16:04:09.634Z,20.94
2022-09-14T16:06:39.061Z,20.81
2022-09-14T16:09:07.552Z,20.70
2022-09-14T16:11:35.372Z,20.64
2022-09-14T16:14:02.068Z,20.58
2022-09-14T16:16:28.824Z,20.51
2022-09-14T16:18:55.739Z,20.49
2022-09-14T16:21:24.952Z,20.44
2022-09-14T16:23:57.853Z,20.39
2022-09-14T16:26:27.345Z,20.35
2022-09-14T16:28:54.873Z,20.31
2022-09-14T16:31:30.267Z,20.22
2022-09-14T16:33:59.554Z,20.21
2022-09-14T16:36:28.587Z,20.17
2022-09-14T16:39:02.891Z,20.07
2022-09-14T16:41:31.242Z,19.97
2022-09-14T16:43:59.282Z,19.86
2022-09-14T16:46:27.521Z,19.73
2022-09-14T16:48:55.174Z,19.66
2022-09-14T16:51:23.674Z,19.60
2022-09-14T16:53:51.739Z,19.57
2022-09-14T16:56:24.807Z,19.49
2022-09-14T16:58:53.648Z,19.45
2022-09-14T17:01:53.582Z,19.36
2022-09-14T17:04:22.057Z,19.28
2022-09-14T17:06:50.495Z,19.24
2022-09-14T17:09:28.842Z,19.25
2022-09-14T17:11:56.905Z,19.19
2022-09-14T17:14:30.055Z,19.17
2022-09-14T17:16:57.477Z,19.18
2022-09-14T17:19:24.775Z,19.17
2022-09-14T17:21:51.850Z,19.16
2022-09-14T17:24:20.032Z,19.16
2022-09-14T17:26:47.150Z,19.12
2022-09-14T17:29:14.111Z,19.04
2022-09-14T17:31:42.824Z,19.05
2022-09-14T17:34:11.626Z,19.03
2022-09-14T17:36:38.353Z,19.00
2022-09-14T17:39:10.669Z,19.00
2022-09-14T17:41:39.064Z,19.00
2022-09-14T17:44:07.181Z,18.93
2022-09-14T17:46:34.062Z,18.88
2022-09-14T17:49:03.610Z,18.83
2022-09-14T17:51:31.507Z,18.81
2022-09-14T17:54:00.291Z,18.83
2022-09-14T17:56:28.621Z,18.80
2022-09-14T17:59:01.719Z,18.74
2022-09-14T18:01:28.937Z,18.70
2022-09-14T18:03:58.909Z,18.68
2022-09-14T18:06:31.514Z,18.68
2022-09-14T18:09:00.386Z,18.62
2022-09-14T18:11:28.152Z,18.61
2022-09-14T18:13:54.998Z,18.52
2022-09-14T18:16:22.947Z,18.52
2022-09-14T18:18:49.670Z,18.48
2022-09-14T18:21:18.493Z,18.45
2022-09-14T18:23:49.964Z,18.41
2022-09-14T18:26:17.569Z,18.43
2022-09-14T18:28:44.782Z,18.39
2022-09-14T18:31:13.925Z,18.39
2022-09-14T18:33:40.554Z,18.34
2022-09-14T18:36:07.379Z,18.30
2022-09-14T18:38:33.994Z,18.24
2022-09-14T18:41:08.413Z,18.21
2022-09-14T18:43:35.893Z,18.12
2022-09-14T18:46:07.069Z,18.04
2022-09-14T18:48:34.844Z,18.00
2022-09-14T18:51:03.819Z,17.95
2022-09-14T18:53:30.832Z,17.86
2022-09-14T18:56:17.612Z,17.78
2022-09-14T18:58:45.982Z,17.74
2022-09-14T19:01:13.849Z,17.70
2022-09-14T19:03:42.393Z,17.68
2022-09-14T19:06:14.512Z,17.61
2022-09-14T19:08:41.918Z,17.54
2022-09-14T19:11:23.271Z,17.52
2022-09-14T19:13:55.938Z,17.53
2022-09-14T19:16:22.455Z,17.54
2022-09-14T19:18:49.838Z,17.54
2022-09-14T19:21:23.813Z,17.54
2022-09-14T19:24:05.526Z,17.54
2022-09-14T19:26:35.855Z,17.57
2022-09-14T19:29:03.677Z,17.54
2022-09-14T19:31:30.885Z,17.55
2022-09-14T19:33:59.057Z,17.57
2022-09-14T19:36:27.369Z,17.57
2022-09-14T19:38:57.252Z,17.56
2022-09-14T19:41:23.828Z,17.55
2022-09-14T19:43:50.780Z,17.53
2022-09-14T19:46:19.703Z,17.49
2022-09-14T19:48:47.253Z,17.47
2022-09-14T19:51:19.597Z,17.44
2022-09-14T19:53:48.782Z,17.39
2022-09-14T19:56:17.645Z,17.35
2022-09-14T19:58:46.906Z,17.29
2022-09-14T20:01:15.476Z,17.21
2022-09-14T20:03:43.172Z,17.12
2022-09-14T20:06:19.130Z,17.07
2022-09-14T20:08:46.792Z,17.01
2022-09-14T20:11:19.650Z,16.97
2022-09-14T20:13:48.380Z,16.88
2022-09-14T20:16:18.316Z,16.83
2022-09-14T20:18:46.608Z,16.79
2022-09-14T20:21:21.268Z,16.74
2022-09-14T20:24:11.570Z,16.70
2022-09-14T20:26:34.786Z,16.63
2022-09-14T20:29:01.725Z,16.57
2022-09-14T20:31:29.575Z,16.52
2022-09-14T20:33:57.371Z,16.47
2022-09-14T20:36:25.287Z,16.40
2022-09-14T20:38:54.640Z,16.35
2022-09-14T20:41:23.604Z,16.29
2022-09-14T20:43:50.758Z,16.27
2022-09-14T20:46:24.494Z,16.26
2022-09-14T20:48:51.858Z,16.24
2022-09-14T20:51:20.531Z,16.24
2022-09-14T20:53:47.883Z,16.21
2022-09-14T20:56:17.061Z,16.19
2022-09-14T20:58:43.818Z,16.16
2022-09-14T21:01:11.927Z,16.14
2022-09-14T21:03:42.794Z,16.15
2022-09-14T21:06:13.040Z,16.16
2022-09-14T21:08:40.536Z,16.15
2022-09-14T21:11:12.878Z,16.17
2022-09-14T21:13:39.759Z,16.18
2022-09-14T21:16:09.901Z,16.17
2022-09-14T21:18:36.567Z,16.17
2022-09-14T21:21:15.501Z,16.14
2022-09-14T21:23:42.512Z,16.08
2022-09-14T21:26:10.776Z,16.00
2022-09-14T21:28:39.187Z,15.96
2022-09-14T21:31:17.468Z,15.88
2022-09-14T21:33:46.301Z,15.81
2022-09-14T21:36:16.170Z,15.75
2022-09-14T21:38:43.215Z,15.70
2022-09-14T21:41:11.594Z,15.63
2022-09-14T21:43:40.156Z,15.56
2022-09-14T21:46:08.034Z,15.51
2022-09-14T21:48:36.198Z,15.45
2022-09-14T21:51:07.193Z,15.39
2022-09-14T21:53:34.541Z,15.32
2022-09-14T21:56:05.680Z,15.24
2022-09-14T21:58:33.010Z,15.19
2022-09-14T22:01:01.354Z,15.16
2022-09-14T22:03:28.684Z,15.12
2022-09-14T22:05:56.853Z,15.08
2022-09-14T22:08:23.751Z,15.02
2022-09-14T22:10:50.233Z,14.99
2022-09-14T22:13:16.924Z,14.96
2022-09-14T22:15:43.482Z,14.95
2022-09-14T22:18:10.032Z,14.91
2022-09-14T22:20:36.458Z,14.90
2022-09-14T22:23:03.167Z,14.88
2022-09-14T22:25:30.240Z,14.88
2022-09-14T22:27:56.708Z,14.87
2022-09-14T22:30:23.182Z,14.87
2022-09-14T22:32:49.614Z,14.87
2022-09-14T22:35:16.101Z,14.89
2022-09-14T22:37:42.550Z,14.91
2022-09-14T22:40:09.703Z,14.93
2022-09-14T22:42:37.107Z,14.92
2022-09-14T22:45:03.811Z,14.92
2022-09-14T22:47:30.309Z,14.92
2022-09-14T22:49:56.735Z,14.93
2022-09-14T22:52:23.909Z,14.93
2022-09-14T22:54:50.390Z,14.95
2022-09-14T22:57:16.845Z,14.93
2022-09-14T22:59:43.330Z,14.93
2022-09-14T23:02:09.802Z,14.91
2022-09-14T23:04:36.500Z,14.92
2022-09-14T23:07:04.239Z,14.93
2022-09-14T23:09:30.721Z,14.96
2022-09-14T23:11:57.163Z,14.99
2022-09-14T23:14:24.075Z,15.00
2022-09-14T23:16:50.657Z,15.03
2022-09-14T23:19:18.252Z,15.04
2022-09-14T23:21:45.803Z,15.09
2022-09-14T23:24:12.285Z,15.10
2022-09-14T23:26:39.086Z,15.10
2022-09-14T23:29:09.182Z,15.12
2022-09-14T23:31:35.785Z,15.13
2022-09-14T23:34:04.471Z,15.15
2022-09-14T23:36:31.371Z,15.15
2022-09-14T23:38:57.856Z,15.17
2022-09-14T23:41:25.983Z,15.20
2022-09-14T23:43:52.597Z,15.21
2022-09-14T23:46:20.132Z,15.21
2022-09-14T23:48:46.965Z,15.20
2022-09-14T23:51:14.309Z,15.21
2022-09-14T23:53:41.873Z,15.18
2022-09-14T23:56:09.474Z,15.17
2022-09-14T23:58:36.110Z,15.14
